Time;durP1;ratioP1;P1;durP2;ratioP2;P2;SDS_P1;SDS_P2;PMS_P1;PMS_P2;Temp;Humidity;BMP_temperature;BMP_pressure;BME280_temperature;BME280_humidity;BME280_pressure;Samples;Min_cycle;Max_cycle;Signal;HPM_P1;HPM_P2
2022/08/06 00:00:46;;;;;;;10.35;5.10;;;;;;;24.01;46.62;94499.88;4173066;28;20061;-69
2022/08/06 00:02:50;;;;;;;7.47;5.22;;;;;;;24.00;46.49;94490.22;4177636;28;20055;-69
2022/08/06 00:04:52;;;;;;;6.05;5.38;;;;;;;23.99;46.79;94495.84;4147393;28;20125;-69
2022/08/06 00:06:54;;;;;;;5.63;4.97;;;;;;;23.99;46.53;94496.63;4142600;28;20207;-70
2022/08/06 00:08:56;;;;;;;8.82;4.63;;;;;;;23.96;46.65;94493.63;4176416;28;20103;-68
2022/08/06 00:10:58;;;;;;;7.43;5.55;;;;;;;23.88;46.82;94503.72;4176155;28;20045;-71
2022/08/06 00:13:01;;;;;;;8.70;5.28;;;;;;;23.86;46.48;94499.69;4147608;28;20100;-69
2022/08/06 00:15:06;;;;;;;8.55;5.03;;;;;;;23.77;46.53;94506.47;4147657;28;20045;-70
2022/08/06 00:17:15;;;;;;;7.95;4.78;;;;;;;23.73;46.75;94506.16;4169859;28;20137;-69
2022/08/06 00:19:17;;;;;;;11.23;5.10;;;;;;;23.67;47.04;94505.25;4165761;28;20136;-70
2022/08/06 00:21:20;;;;;;;5.72;4.70;;;;;;;23.69;47.08;94502.34;4159099;28;20499;-70
2022/08/06 00:23:42;;;;;;;9.48;5.20;;;;;;;23.75;47.30;94512.06;4161682;28;20053;-69
2022/08/06 00:25:56;;;;;;;7.10;5.30;;;;;;;23.79;47.76;94515.06;4170626;28;20056;-69
2022/08/06 00:27:58;;;;;;;7.03;5.55;;;;;;;23.75;48.06;94511.22;4162184;28;20083;-69
2022/08/06 00:30:00;;;;;;;8.15;6.13;;;;;;;23.75;48.17;94505.88;4165929;28;20159;-70
2022/08/06 00:32:06;;;;;;;10.38;5.80;;;;;;;23.77;48.34;94509.97;4162491;28;20041;-69
2022/08/06 00:34:12;;;;;;;12.77;6.18;;;;;;;23.80;48.31;94509.47;4164679;28;20059;-70
2022/08/06 00:36:18;;;;;;;7.22;5.65;;;;;;;23.84;48.03;94512.47;4176600;28;20056;-69
2022/08/06 00:38:28;;;;;;;8.88;5.82;;;;;;;23.81;48.31;94515.63;4165519;28;20061;-69
2022/08/06 00:40:31;;;;;;;6.32;5.18;;;;;;;23.81;48.22;94518.31;4178216;28;20044;-67
2022/08/06 00:42:33;;;;;;;8.63;5.70;;;;;;;23.80;48.34;94512.16;4177045;28;20152;-68
2022/08/06 00:44:36;;;;;;;6.60;5.88;;;;;;;23.79;48.03;94510.56;4175655;28;20567;-70
2022/08/06 00:46:38;;;;;;;9.25;6.07;;;;;;;23.81;48.19;94507.59;4174966;28;20049;-69
2022/08/06 00:48:41;;;;;;;7.22;5.43;;;;;;;23.82;48.25;94510.03;4173275;28;20143;-69
2022/08/06 00:50:54;;;;;;;9.00;7.10;;;;;;;23.80;48.02;94511.34;4174984;28;20057;-69
2022/08/06 00:52:56;;;;;;;12.35;8.45;;;;;;;23.73;48.18;94502.69;4172835;28;20095;-68
2022/08/06 00:54:59;;;;;;;10.25;7.95;;;;;;;23.70;48.34;94512.81;4183971;28;20064;-69
2022/08/06 00:57:01;;;;;;;11.95;6.65;;;;;;;23.66;48.44;94511.69;4192779;28;20502;-69
2022/08/06 00:59:08;;;;;;;9.68;5.90;;;;;;;23.63;48.59;94501.44;4185939;28;20059;-68
2022/08/06 01:01:11;;;;;;;8.68;5.72;;;;;;;23.60;48.65;94520.66;4169262;28;20484;-68
2022/08/06 01:03:18;;;;;;;13.10;6.68;;;;;;;23.55;48.65;94515.22;4180388;28;20049;-69
2022/08/06 01:05:40;;;;;;;8.65;5.85;;;;;;;23.55;48.51;94504.53;4163505;28;20100;-68
2022/08/06 01:08:03;;;;;;;8.98;6.05;;;;;;;23.41;48.79;94513.97;4159707;28;20042;-69
2022/08/06 01:10:06;;;;;;;7.97;5.93;;;;;;;23.25;49.20;94504.88;4168871;28;20460;-70
2022/08/06 01:12:07;;;;;;;7.97;5.85;;;;;;;23.15;49.68;94510.88;4158614;28;20496;-68
2022/08/06 01:14:12;;;;;;;9.70;6.50;;;;;;;22.90;50.67;94504.00;4159382;28;20680;-68
2022/08/06 01:16:43;;;;;;;6.47;5.50;;;;;;;22.82;50.88;94512.41;4176653;28;20053;-69
2022/08/06 01:19:27;;;;;;;9.55;6.47;;;;;;;22.87;50.66;94511.69;4158668;28;20057;-69
2022/08/06 01:21:58;;;;;;;7.18;5.82;;;;;;;22.94;50.52;94506.19;4175107;28;20496;-69
2022/08/06 01:24:44;;;;;;;9.25;6.05;;;;;;;22.98;50.16;94496.66;4175951;28;20067;-70
2022/08/06 01:26:56;;;;;;;12.30;6.03;;;;;;;23.02;50.45;94508.50;4174992;28;20163;-68
2022/08/06 01:29:27;;;;;;;11.65;5.75;;;;;;;23.07;50.23;94498.72;4176593;28;20416;-69
2022/08/06 01:31:59;;;;;;;6.95;5.47;;;;;;;23.11;49.85;94504.38;4167806;28;20479;-68
2022/08/06 01:34:07;;;;;;;8.90;5.95;;;;;;;23.15;49.66;94508.19;4149872;28;20269;-68
2022/08/06 01:36:22;;;;;;;10.27;5.32;;;;;;;23.18;49.63;94502.34;4159311;28;20111;-69
2022/08/06 01:38:39;;;;;;;6.43;5.47;;;;;;;23.19;48.94;94495.97;4158149;28;20064;-69
2022/08/06 01:40:47;;;;;;;10.63;5.55;;;;;;;23.21;49.03;94501.88;4153072;28;20050;-69
2022/08/06 01:42:55;;;;;;;8.57;5.75;;;;;;;23.17;49.59;94499.94;4158890;28;20065;-69
2022/08/06 01:45:01;;;;;;;7.75;5.97;;;;;;;23.09;49.81;94498.47;4157368;28;20075;-69
2022/08/06 01:47:09;;;;;;;6.68;5.50;;;;;;;22.90;49.93;94504.00;4173930;28;20072;-68
2022/08/06 01:49:23;;;;;;;6.35;5.13;;;;;;;22.81;49.66;94502.78;4175918;28;20053;-69
2022/08/06 01:51:30;;;;;;;6.53;5.30;;;;;;;22.69;49.63;94502.84;4171532;28;20099;-67
2022/08/06 01:53:52;;;;;;;6.80;4.90;;;;;;;22.59;49.78;94507.19;4158545;28;20151;-68
2022/08/06 01:56:08;;;;;;;8.98;5.43;;;;;;;22.33;50.31;94500.53;4159052;28;20053;-69
2022/08/06 01:58:10;;;;;;;7.22;5.35;;;;;;;21.93;51.14;94499.44;4158516;28;20201;-69
2022/08/06 02:00:31;;;;;;;6.05;4.88;;;;;;;21.66;51.50;94493.75;4160596;28;20111;-69
2022/08/06 02:02:35;;;;;;;8.93;5.00;;;;;;;21.71;52.03;94501.09;4155978;28;20480;-69
2022/08/06 02:04:43;;;;;;;6.53;5.70;;;;;;;21.85;51.84;94497.13;4157845;28;20094;-69
2022/08/06 02:06:51;;;;;;;5.85;4.97;;;;;;;21.98;51.07;94493.38;4148467;28;20061;-69
2022/08/06 02:08:55;;;;;;;6.97;5.07;;;;;;;22.12;50.67;94484.09;4157885;28;20076;-70
2022/08/06 02:10:57;;;;;;;8.07;5.22;;;;;;;22.22;50.67;94488.81;4161156;28;20053;-68
2022/08/06 02:13:21;;;;;;;7.20;4.82;;;;;;;22.32;50.35;94481.03;4151051;28;20136;-69
2022/08/06 02:15:28;;;;;;;8.80;5.75;;;;;;;22.39;49.85;94479.06;4157657;28;20072;-67
2022/08/06 02:17:52;;;;;;;6.03;5.05;;;;;;;22.47;50.04;94478.66;4168163;28;20045;-68
2022/08/06 02:20:09;;;;;;;9.07;5.57;;;;;;;22.52;49.83;94472.63;4147974;28;20049;-68
2022/08/06 02:22:19;;;;;;;9.38;5.50;;;;;;;22.56;49.71;94472.94;4158167;28;20342;-67
2022/08/06 02:24:29;;;;;;;11.32;5.97;;;;;;;22.46;49.89;94476.25;4166331;28;20073;-68
2022/08/06 02:26:31;;;;;;;;;;;;;;;22.12;50.53;94483.28;4149838;28;20184;-69
2022/08/06 02:28:34;;;;;;;10.20;6.05;;;;;;;21.55;52.24;94470.59;4169624;28;19920;-68
2022/08/06 02:30:43;;;;;;;9.93;5.93;;;;;;;21.15;53.56;94479.25;4174336;28;20044;-69
2022/08/06 02:32:49;;;;;;;9.27;6.45;;;;;;;20.93;54.18;94469.16;4149417;28;20049;-68
2022/08/06 02:34:52;;;;;;;9.40;6.47;;;;;;;20.96;54.22;94471.34;4170219;28;20076;-69
2022/08/06 02:37:11;;;;;;;9.48;5.85;;;;;;;21.13;53.70;94478.69;4170764;28;20126;-68
2022/08/06 02:39:33;;;;;;;7.03;5.82;;;;;;;21.37;53.03;94476.84;4157967;28;20050;-68
2022/08/06 02:42:07;;;;;;;9.10;6.60;;;;;;;21.58;52.22;94478.94;4153907;28;20062;-67
2022/08/06 02:44:20;;;;;;;10.07;6.20;;;;;;;21.70;51.80;94478.94;4156853;28;20054;-68
2022/08/06 02:46:29;;;;;;;6.88;5.90;;;;;;;21.76;51.80;94477.19;4174943;28;20057;-68
2022/08/06 02:48:40;;;;;;;8.13;6.10;;;;;;;21.84;51.69;94471.50;4167518;28;20148;-70
2022/08/06 02:50:48;;;;;;;10.02;6.32;;;;;;;21.92;51.53;94478.31;4155291;28;20065;-70
2022/08/06 02:53:25;;;;;;;6.80;6.10;;;;;;;21.96;51.21;94477.66;4156595;28;20132;-68
2022/08/06 02:55:38;;;;;;;10.70;5.65;;;;;;;21.92;51.77;94479.16;4162958;28;20575;-69
2022/08/06 02:57:51;;;;;;;7.07;6.32;;;;;;;21.93;51.48;94482.63;4146811;28;20069;-70
2022/08/06 02:59:54;;;;;;;10.60;6.40;;;;;;;21.95;51.54;94481.34;4161059;28;20425;-69
2022/08/06 03:02:00;;;;;;;7.28;6.07;;;;;;;21.99;51.59;94489.69;4158815;28;20044;-69
2022/08/06 03:04:06;;;;;;;9.85;6.28;;;;;;;22.07;51.41;94487.47;4171543;28;21040;-68
2022/08/06 03:06:10;;;;;;;8.90;5.72;;;;;;;22.07;51.14;94487.47;4159438;28;20059;-69
2022/08/06 03:08:19;;;;;;;6.32;5.72;;;;;;;22.11;51.28;94485.13;4161898;28;20077;-69
2022/08/06 03:10:28;;;;;;;9.73;5.80;;;;;;;22.13;50.94;94495.56;4149180;28;20049;-69
2022/08/06 03:12:31;;;;;;;7.25;6.22;;;;;;;21.97;51.10;94492.59;4160228;28;20068;-69
2022/08/06 03:14:35;;;;;;;12.27;6.57;;;;;;;21.74;51.67;94490.75;4160764;28;20216;-68
2022/08/06 03:16:58;;;;;;;8.02;6.35;;;;;;;21.50;52.33;94489.97;4163448;28;20526;-69
2022/08/06 03:19:01;;;;;;;9.43;6.65;;;;;;;21.51;52.46;94491.59;4159929;28;20053;-69
2022/08/06 03:21:24;;;;;;;7.13;6.30;;;;;;;21.52;52.85;94498.53;4167592;28;20045;-69
2022/08/06 03:23:35;;;;;;;8.00;5.90;;;;;;;21.55;52.49;94486.59;4153315;28;20144;-68
2022/08/06 03:25:39;;;;;;;8.52;6.05;;;;;;;21.63;52.18;94488.91;4165518;28;20122;-69
2022/08/06 03:27:44;;;;;;;8.88;6.13;;;;;;;21.74;52.32;94498.75;4175760;28;20148;-70
2022/08/06 03:29:47;;;;;;;7.53;5.90;;;;;;;21.83;52.01;94499.19;4147284;28;20050;-69
2022/08/06 03:32:00;;;;;;;7.32;6.57;;;;;;;21.95;51.75;94489.34;4150985;28;20066;-69
2022/08/06 03:34:22;;;;;;;10.02;7.15;;;;;;;22.04;51.53;94489.78;4162463;28;20515;-68
2022/08/06 03:36:25;;;;;;;7.40;6.05;;;;;;;22.07;51.33;94487.47;4176456;28;20064;-69
2022/08/06 03:38:37;;;;;;;7.57;6.10;;;;;;;22.09;51.36;94490.72;4181867;28;20123;-69
2022/08/06 03:40:43;;;;;;;10.75;5.70;;;;;;;22.15;51.58;94494.28;4162153;28;20520;-67
2022/08/06 03:42:49;;;;;;;8.27;5.75;;;;;;;22.19;51.38;94491.97;4159763;28;20127;-68
2022/08/06 03:44:54;;;;;;;15.02;6.35;;;;;;;22.27;51.38;94494.28;4175444;28;20052;-69
2022/08/06 03:47:00;;;;;;;8.60;5.95;;;;;;;22.31;50.85;94484.75;4174677;28;20067;-68
2022/08/06 03:49:05;;;;;;;9.77;6.28;;;;;;;22.35;50.70;94493.09;4153975;28;20250;-70
2022/08/06 03:51:20;;;;;;;6.85;6.15;;;;;;;22.39;50.69;94495.06;4142463;28;20054;-68
2022/08/06 03:53:42;;;;;;;9.43;6.30;;;;;;;22.48;50.63;94490.16;4164192;28;20131;-68
2022/08/06 03:55:54;;;;;;;12.30;6.40;;;;;;;22.56;50.62;94492.44;4157601;28;20109;-69
2022/08/06 03:58:01;;;;;;;7.78;5.72;;;;;;;22.66;50.57;94494.50;4150889;28;20057;-69
2022/08/06 04:00:04;;;;;;;6.90;5.93;;;;;;;22.72;50.38;94498.06;4150461;28;20115;-67
2022/08/06 04:02:07;;;;;;;7.53;6.30;;;;;;;22.73;50.24;94492.47;4158264;28;20065;-67
2022/08/06 04:04:25;;;;;;;10.15;6.05;;;;;;;22.67;50.47;94501.44;4161892;28;20111;-67
2022/08/06 04:06:29;;;;;;;8.63;6.70;;;;;;;22.75;50.40;94503.72;4154509;28;20057;-68
2022/08/06 04:08:33;;;;;;;6.60;5.90;;;;;;;22.79;50.68;94506.75;4147787;28;20077;-68
2022/08/06 04:10:40;;;;;;;7.15;6.10;;;;;;;22.82;49.93;94512.41;4157849;28;20099;-68
2022/08/06 04:12:54;;;;;;;7.18;6.00;;;;;;;22.83;50.13;94514.03;4163519;28;20053;-68
2022/08/06 04:15:16;;;;;;;9.98;6.13;;;;;;;22.93;49.56;94507.22;4160738;28;20469;-69
2022/08/06 04:17:19;;;;;;;11.00;6.35;;;;;;;23.01;49.21;94517.56;4150187;28;20084;-68
2022/08/06 04:19:25;;;;;;;6.95;6.05;;;;;;;23.06;49.00;94515.00;4152129;28;20105;-69
2022/08/06 04:21:36;;;;;;;12.68;6.30;;;;;;;23.10;49.03;94508.09;4157904;28;20544;-69
2022/08/06 04:23:58;;;;;;;7.65;6.03;;;;;;;23.12;48.62;94519.34;4158790;28;20368;-68
2022/08/06 04:26:03;;;;;;;8.15;6.55;;;;;;;23.21;48.44;94514.41;4156006;28;20079;-70
2022/08/06 04:28:09;;;;;;;7.32;6.43;;;;;;;23.38;48.01;94512.59;4143272;28;20096;-69
2022/08/06 04:30:11;;;;;;;9.10;6.45;;;;;;;23.34;48.28;94522.13;4165561;28;20052;-68
2022/08/06 04:32:14;;;;;;;10.52;6.30;;;;;;;23.34;48.44;94521.31;4150308;28;20056;-68
2022/08/06 04:34:30;;;;;;;7.15;6.45;;;;;;;23.33;48.50;94522.38;4152884;28;20046;-70
2022/08/06 04:36:32;;;;;;;7.70;6.13;;;;;;;23.22;48.17;94519.53;4169993;28;20056;-69
2022/08/06 04:38:34;;;;;;;7.82;6.65;;;;;;;23.25;47.97;94516.38;4170931;28;20057;-67
2022/08/06 04:40:40;;;;;;;12.32;6.95;;;;;;;23.22;48.10;94524.88;4170639;28;20052;-68
2022/08/06 04:42:55;;;;;;;7.00;6.30;;;;;;;23.29;48.08;94522.84;4157931;28;20104;-69
2022/08/06 04:44:57;;;;;;;12.38;6.35;;;;;;;23.47;47.50;94529.03;4161563;28;20092;-68
2022/08/06 04:47:01;;;;;;;9.40;6.53;;;;;;;23.51;47.93;94527.47;4155360;28;20057;-67
2022/08/06 04:49:04;;;;;;;8.82;6.38;;;;;;;23.55;48.27;94533.13;4159228;28;20049;-69
2022/08/06 04:51:07;;;;;;;7.93;6.65;;;;;;;23.54;47.97;94531.53;4170953;28;20107;-69
2022/08/06 04:53:18;;;;;;;11.93;7.00;;;;;;;23.55;48.14;94528.59;4168491;28;20549;-68
2022/08/06 04:55:41;;;;;;;7.68;6.15;;;;;;;23.58;47.64;94519.31;4172215;28;20132;-69
2022/08/06 04:58:06;;;;;;;10.45;6.45;;;;;;;23.58;47.93;94532.66;4165750;28;20057;-68
2022/08/06 05:00:15;;;;;;;9.10;6.60;;;;;;;23.60;48.04;94535.91;4165571;28;20053;-70
2022/08/06 05:02:34;;;;;;;8.30;6.60;;;;;;;23.54;47.60;94535.00;4174009;28;20580;-68
2022/08/06 05:04:37;;;;;;;10.68;6.80;;;;;;;23.34;48.28;94543.53;4171530;28;20053;-68
2022/08/06 05:06:48;;;;;;;6.50;5.80;;;;;;;23.21;48.27;94543.81;4154824;28;20133;-68
2022/08/06 05:08:57;;;;;;;9.60;6.72;;;;;;;23.16;48.23;94539.19;4175429;28;20048;-68
2022/08/06 05:11:21;;;;;;;7.88;5.85;;;;;;;23.26;48.36;94536.69;4157585;28;20172;-69
2022/08/06 05:13:29;;;;;;;6.70;6.07;;;;;;;23.45;48.15;94541.81;4156133;28;20350;-69
2022/08/06 05:15:42;;;;;;;9.75;6.35;;;;;;;23.58;47.74;94538.81;4159508;28;20565;-69
2022/08/06 05:17:57;;;;;;;10.77;7.75;;;;;;;23.75;47.40;94540.66;4152990;28;20041;-69
2022/08/06 05:20:07;;;;;;;11.18;7.72;;;;;;;23.74;47.00;94536.38;4151489;28;20427;-68
2022/08/06 05:22:28;;;;;;;10.27;7.47;;;;;;;23.87;46.58;94544.06;4151293;28;20073;-69
2022/08/06 05:24:50;;;;;;;8.55;7.55;;;;;;;23.94;46.37;94534.03;4160136;28;20044;-69
2022/08/06 05:27:05;;;;;;;12.10;7.40;;;;;;;24.06;46.20;94541.94;4155730;28;20085;-70
2022/08/06 05:29:08;;;;;;;11.27;7.70;;;;;;;24.14;45.76;94540.72;4150069;28;20042;-68
2022/08/06 05:31:12;;;;;;;9.40;7.10;;;;;;;24.22;45.89;94540.25;4171794;28;20121;-68
2022/08/06 05:33:28;;;;;;;9.50;7.88;;;;;;;24.19;45.56;94546.94;4149590;28;20061;-70
2022/08/06 05:35:31;;;;;;;10.60;6.90;;;;;;;24.21;45.62;94536.78;4162957;28;20108;-70
2022/08/06 05:37:41;;;;;;;7.72;6.93;;;;;;;24.25;45.36;94543.25;4175392;28;20072;-69
2022/08/06 05:40:05;;;;;;;11.90;6.45;;;;;;;24.32;45.49;94543.88;4174994;28;20495;-69
2022/08/06 05:42:12;;;;;;;10.82;6.47;;;;;;;24.42;45.04;94534.38;4173187;28;20140;-69
2022/08/06 05:44:25;;;;;;;12.07;6.30;;;;;;;23.91;45.60;94545.22;4164348;28;20048;-68
2022/08/06 05:46:34;;;;;;;10.27;7.20;;;;;;;23.83;45.84;94542.94;4171287;28;20052;-67
2022/08/06 05:48:48;;;;;;;13.48;6.80;;;;;;;23.73;46.08;94540.91;4155155;28;20064;-67
2022/08/06 05:50:57;;;;;;;8.95;6.78;;;;;;;23.84;46.36;94542.72;4151098;28;20049;-69
2022/08/06 05:53:09;;;;;;;13.80;7.25;;;;;;;24.01;46.12;94541.88;4173464;28;20048;-68
2022/08/06 05:55:27;;;;;;;14.68;7.60;;;;;;;24.12;45.85;94540.97;4163310;28;20156;-70
2022/08/06 05:57:47;;;;;;;7.78;6.72;;;;;;;24.11;45.38;94539.31;4155749;28;20049;-68
2022/08/06 06:00:01;;;;;;;8.57;7.18;;;;;;;24.09;45.86;94544.09;4164219;28;20547;-69
2022/08/06 06:02:06;;;;;;;8.38;7.55;;;;;;;24.12;46.13;94536.41;4156327;28;20042;-66
2022/08/06 06:04:11;;;;;;;9.35;7.25;;;;;;;24.16;46.26;94531.38;4150058;28;20420;-67
2022/08/06 06:06:14;;;;;;;12.20;7.25;;;;;;;24.17;46.39;94535.66;4166509;28;20076;-69
2022/08/06 06:08:19;;;;;;;8.63;7.28;;;;;;;24.06;46.78;94537.41;4162648;28;20064;-69
2022/08/06 06:10:41;;;;;;;8.10;7.28;;;;;;;24.09;46.87;94534.25;4149286;28;20052;-70
2022/08/06 06:12:55;;;;;;;10.50;7.03;;;;;;;24.26;46.54;94531.53;4162223;28;20148;-68
2022/08/06 06:14:57;;;;;;;11.13;7.38;;;;;;;24.47;46.25;94531.75;4162038;28;20068;-69
2022/08/06 06:17:15;;;;;;;9.98;7.30;;;;;;;24.64;46.32;94534.38;4159199;28;20061;-69
2022/08/06 06:19:59;;;;;;;10.82;7.68;;;;;;;24.70;45.62;94536.06;4163528;28;20041;-69
2022/08/06 06:22:22;;;;;;;11.07;8.52;;;;;;;24.76;45.71;94528.88;4172959;28;20060;-70
2022/08/06 06:24:39;;;;;;;9.18;7.15;;;;;;;24.79;45.89;94518.47;4157429;28;20049;-68
2022/08/06 06:26:43;;;;;;;10.57;7.20;;;;;;;24.82;45.96;94528.69;4161555;28;20081;-70
2022/08/06 06:28:54;;;;;;;13.05;7.60;;;;;;;24.82;45.85;94522.53;4173243;28;20072;-69
2022/08/06 06:30:55;;;;;;;10.18;7.97;;;;;;;24.87;45.48;94527.94;4170944;28;20116;-70
2022/08/06 06:33:15;;;;;;;9.77;7.85;;;;;;;24.75;45.76;94528.06;4159375;28;20128;-68
2022/08/06 06:35:58;;;;;;;9.65;7.85;;;;;;;24.82;45.30;94531.34;4169961;28;20179;-69
2022/08/06 06:38:14;;;;;;;12.63;7.53;;;;;;;25.00;44.77;94527.53;4154724;28;20111;-68
2022/08/06 06:40:37;;;;;;;9.80;8.13;;;;;;;25.21;44.36;94525.06;4163787;28;20532;-70
2022/08/06 06:43:05;;;;;;;9.68;7.85;;;;;;;25.19;43.87;94517.25;4161434;28;20204;-68
2022/08/06 06:45:14;;;;;;;10.77;7.82;;;;;;;24.96;44.29;94514.91;4144013;28;20053;-68
2022/08/06 06:48:04;;;;;;;10.43;7.82;;;;;;;24.90;44.80;94517.50;4164342;28;20056;-68
2022/08/06 06:50:17;;;;;;;11.13;7.65;;;;;;;24.87;44.79;94504.63;4174521;28;20400;-69
2022/08/06 06:52:34;;;;;;;12.30;7.70;;;;;;;25.08;44.39;94510.16;4156469;28;20394;-70
2022/08/06 06:54:41;;;;;;;8.07;7.18;;;;;;;25.34;43.99;94511.25;4156907;28;20072;-69
2022/08/06 06:56:48;;;;;;;13.32;7.57;;;;;;;25.51;43.66;94508.41;4175629;28;20155;-69
2022/08/06 06:58:59;;;;;;;7.65;6.63;;;;;;;25.64;43.83;94505.31;4162962;28;20045;-71
2022/08/06 07:01:08;;;;;;;9.60;7.10;;;;;;;25.86;43.28;94502.50;4171909;28;20512;-67
2022/08/06 07:03:28;;;;;;;9.60;6.82;;;;;;;25.83;42.85;94507.56;4159121;28;20123;-69
2022/08/06 07:05:46;;;;;;;9.10;6.75;;;;;;;25.83;42.48;94502.19;4145326;28;20053;-69
2022/08/06 07:08:10;;;;;;;12.77;7.03;;;;;;;25.52;43.17;94510.84;4160189;28;20055;-67
2022/08/06 07:10:14;;;;;;;10.57;6.53;;;;;;;25.25;43.47;94504.72;4127014;28;20046;-67
2022/08/06 07:12:19;;;;;;;8.77;6.75;;;;;;;25.22;43.76;94507.94;4124497;28;20050;-69
2022/08/06 07:14:25;;;;;;;8.45;6.65;;;;;;;25.13;44.13;94505.69;4108614;28;20059;-69
2022/08/06 07:16:37;;;;;;;10.88;6.93;;;;;;;25.30;44.07;94502.91;4129295;28;20062;-69
2022/08/06 07:18:42;;;;;;;8.48;6.53;;;;;;;25.60;43.11;94495.31;4109992;28;20144;-69
2022/08/06 07:20:54;;;;;;;12.00;6.88;;;;;;;25.93;42.63;94502.28;4115632;28;20497;-73
2022/08/06 07:23:00;;;;;;;9.38;6.57;;;;;;;26.10;42.64;94494.06;4139601;28;20221;-74
2022/08/06 07:25:22;;;;;;;8.93;6.22;;;;;;;26.26;42.48;94502.97;4140940;28;20421;-70
2022/08/06 07:27:27;;;;;;;9.60;7.20;;;;;;;26.38;42.29;94495.53;4124258;28;20589;-68
2022/08/06 07:29:46;;;;;;;11.02;6.90;;;;;;;26.44;42.06;94499.84;4125738;28;20043;-67
2022/08/06 07:32:01;;;;;;;8.88;6.97;;;;;;;26.46;42.28;94497.72;4123605;28;20122;-67
2022/08/06 07:34:03;;;;;;;10.30;7.38;;;;;;;26.44;42.15;94493.69;4119086;28;20510;-69
2022/08/06 07:36:10;;;;;;;12.90;7.53;;;;;;;26.47;42.13;94493.13;4139349;28;20062;-68
2022/08/06 07:38:18;;;;;;;13.48;6.25;;;;;;;26.58;42.00;94483.25;4132005;28;20121;-68
2022/08/06 07:40:30;;;;;;;8.95;5.95;;;;;;;26.58;41.74;94485.94;4123096;28;20150;-68
2022/08/06 07:42:34;;;;;;;11.75;6.40;;;;;;;26.73;41.51;94477.94;4126244;28;20091;-68
2022/08/06 07:44:39;;;;;;;14.43;6.32;;;;;;;26.91;41.44;94479.28;4118582;28;20051;-69
2022/08/06 07:46:59;;;;;;;8.10;6.35;;;;;;;27.15;41.25;94476.91;4113181;28;20670;-70
2022/08/06 07:49:04;;;;;;;8.65;6.88;;;;;;;27.36;40.38;94481.25;4157525;28;20080;-75
2022/08/06 07:51:09;;;;;;;9.50;7.20;;;;;;;27.50;40.00;94473.44;4169351;28;20566;-69
2022/08/06 07:53:12;;;;;;;12.18;7.13;;;;;;;27.70;39.72;94475.28;4159111;28;20076;-70
2022/08/06 07:55:14;;;;;;;9.90;7.10;;;;;;;27.86;39.49;94470.72;4156012;28;20128;-68
2022/08/06 07:57:16;;;;;;;8.30;6.32;;;;;;;27.98;39.00;94473.09;4143489;28;20136;-68
2022/08/06 07:59:26;;;;;;;12.52;6.88;;;;;;;28.06;38.64;94474.44;4174834;28;20570;-67
2022/08/06 08:01:31;;;;;;;8.95;6.38;;;;;;;28.17;38.44;94476.81;4162539;28;20151;-70
2022/08/06 08:06:22;;;;;;;7.80;5.90;;;;;;;28.41;37.92;94468.09;4165700;28;20072;-70
2022/08/06 08:08:26;;;;;;;10.48;6.05;;;;;;;28.51;38.01;94472.66;4158674;28;20053;-68
2022/08/06 08:10:28;;;;;;;9.50;6.28;;;;;;;28.43;38.03;94468.63;4175553;28;20049;-69
2022/08/06 08:12:34;;;;;;;11.98;6.43;;;;;;;28.11;38.32;94475.22;4173287;28;20077;-68
2022/08/06 08:14:39;;;;;;;13.68;6.30;;;;;;;27.91;38.84;94468.00;4152952;28;20465;-69
2022/08/06 08:16:49;;;;;;;10.45;6.40;;;;;;;27.92;38.98;94471.50;4159650;28;20123;-70
2022/08/06 08:18:52;;;;;;;17.33;6.35;;;;;;;28.08;38.56;94473.06;4174796;28;20452;-69
2022/08/06 08:20:54;;;;;;;9.50;5.82;;;;;;;28.31;38.37;94470.84;4166898;28;20151;-69
2022/08/06 08:22:58;;;;;;;12.82;5.88;;;;;;;28.32;37.93;94470.56;4169836;28;20115;-68
2022/08/06 08:25:01;;;;;;;8.73;5.53;;;;;;;28.49;37.80;94472.16;4174533;28;20049;-69
2022/08/06 08:27:09;;;;;;;7.93;5.63;;;;;;;28.69;37.16;94463.94;4164144;28;20049;-68
2022/08/06 08:29:24;;;;;;;7.18;4.82;;;;;;;28.74;36.45;94465.81;4170434;28;20056;-68
2022/08/06 08:31:32;;;;;;;7.57;3.70;;;;;;;28.75;35.45;94459.31;4167282;28;20061;-68
2022/08/06 08:33:34;;;;;;;3.75;3.17;;;;;;;28.91;34.48;94465.41;4166239;28;20563;-69
2022/08/06 08:35:36;;;;;;;8.97;4.17;;;;;;;29.08;34.61;94462.34;4166788;28;20500;-67
2022/08/06 08:37:38;;;;;;;5.75;3.50;;;;;;;29.21;34.77;94467.13;4158320;28;20372;-67
2022/08/06 08:39:44;;;;;;;7.78;4.00;;;;;;;29.31;34.36;94460.84;4171146;28;20049;-69
2022/08/06 08:41:52;;;;;;;5.88;3.85;;;;;;;29.38;34.55;94462.16;4173579;28;20045;-68
2022/08/06 08:43:59;;;;;;;7.18;4.00;;;;;;;29.30;34.77;94460.06;4164199;28;20045;-68
2022/08/06 08:46:08;;;;;;;13.27;4.40;;;;;;;29.19;34.66;94463.94;4158580;28;20056;-69
2022/08/06 08:48:11;;;;;;;6.55;4.32;;;;;;;29.11;35.17;94461.81;4174432;28;20138;-68
2022/08/06 08:50:19;;;;;;;5.32;4.15;;;;;;;29.25;34.77;94462.78;4158843;28;20239;-70
2022/08/06 08:52:27;;;;;;;6.47;4.50;;;;;;;29.46;34.61;94454.53;4176443;28;20077;-70
2022/08/06 08:54:35;;;;;;;6.45;4.05;;;;;;;29.67;34.65;94458.63;4147428;28;20053;-69
2022/08/06 08:56:40;;;;;;;5.63;3.97;;;;;;;29.80;34.40;94452.59;4176618;28;20064;-67
2022/08/06 08:59:03;;;;;;;5.70;4.10;;;;;;;30.03;34.42;94458.31;4159229;28;20069;-68
2022/08/06 09:01:26;;;;;;;7.43;4.00;;;;;;;30.24;33.72;94456.16;4160906;28;20155;-68
2022/08/06 09:03:48;;;;;;;5.03;3.83;;;;;;;30.43;33.22;94458.91;4147820;28;20045;-70
2022/08/06 09:05:52;;;;;;;6.75;3.83;;;;;;;30.58;32.88;94461.41;4167789;28;20116;-68
2022/08/06 09:07:56;;;;;;;4.40;3.50;;;;;;;30.71;32.07;94459.09;4164264;28;20056;-68
2022/08/06 09:10:04;;;;;;;4.75;3.47;;;;;;;30.72;32.27;94461.53;4167758;28;20045;-69
2022/08/06 09:12:07;;;;;;;6.07;3.80;;;;;;;30.81;32.11;94454.34;4146786;28;20065;-70
2022/08/06 09:14:29;;;;;;;6.63;3.90;;;;;;;30.56;33.02;94455.50;4155671;28;20087;-68
2022/08/06 09:16:36;;;;;;;8.90;3.78;;;;;;;30.48;33.06;94456.19;4170472;28;20076;-67
2022/08/06 09:18:38;;;;;;;4.85;3.58;;;;;;;30.49;33.39;94451.56;4171095;28;20147;-70
2022/08/06 09:20:41;;;;;;;6.00;4.57;;;;;;;30.24;33.03;94449.94;4160968;28;20048;-69
2022/08/06 09:22:50;;;;;;;6.68;3.70;;;;;;;30.27;33.36;94443.97;4160916;28;20472;-70
2022/08/06 09:24:52;;;;;;;11.10;3.97;;;;;;;30.48;32.58;94449.94;4141696;28;20516;-68
2022/08/06 09:27:04;;;;;;;5.63;3.60;;;;;;;30.81;32.14;94434.63;4172444;28;20132;-68
2022/08/06 09:29:26;;;;;;;4.38;3.25;;;;;;;30.84;30.98;94436.75;4175995;28;20042;-69
2022/08/06 09:31:36;;;;;;;3.72;3.38;;;;;;;30.68;31.36;94441.56;4176024;28;20143;-68
2022/08/06 09:34:03;;;;;;;7.57;3.33;;;;;;;30.57;31.28;94440.91;4159680;28;20068;-68
2022/08/06 09:36:26;;;;;;;4.60;3.42;;;;;;;30.82;30.92;94428.94;4175265;28;20130;-68
2022/08/06 09:38:31;;;;;;;7.22;4.30;;;;;;;30.72;31.40;94437.19;4149032;28;20062;-69
2022/08/06 09:40:34;;;;;;;4.13;3.43;;;;;;;30.85;31.52;94437.53;4155319;28;20064;-69
2022/08/06 09:42:37;;;;;;;6.10;3.50;;;;;;;30.76;31.68;94437.38;4162990;28;20079;-69
2022/08/06 09:44:39;;;;;;;6.15;3.90;;;;;;;30.66;31.44;94426.75;4176308;28;20088;-68
2022/08/06 09:46:46;;;;;;;3.78;3.42;;;;;;;30.63;31.19;94444.31;4172402;28;20132;-66
2022/08/06 09:48:57;;;;;;;4.47;3.60;;;;;;;30.65;31.26;94439.44;4153886;28;20488;-67
2022/08/06 09:51:22;;;;;;;4.07;3.13;;;;;;;30.66;31.21;94430.25;4165632;28;20052;-67
2022/08/06 09:53:54;;;;;;;5.30;3.45;;;;;;;30.93;31.21;94429.63;4156385;28;20049;-68
2022/08/06 09:56:16;;;;;;;4.68;3.00;;;;;;;31.12;30.46;94431.47;4163711;28;20056;-69
2022/08/06 09:58:34;;;;;;;5.00;3.45;;;;;;;31.00;30.41;94434.66;4174380;28;20055;-68
2022/08/06 10:00:38;;;;;;;3.83;3.40;;;;;;;31.00;30.72;94432.75;4175465;28;20056;-69
2022/08/06 10:02:41;;;;;;;9.73;3.90;;;;;;;31.11;30.83;94427.97;4173727;28;20045;-69
2022/08/06 10:04:52;;;;;;;4.88;3.03;;;;;;;31.26;31.16;94429.63;4175104;28;20075;-67
2022/08/06 10:06:57;;;;;;;6.45;3.95;;;;;;;31.37;30.26;94425.66;4174868;28;20110;-68
2022/08/06 10:09:10;;;;;;;4.18;3.63;;;;;;;31.34;30.69;94423.56;4173951;28;20071;-69
2022/08/06 10:11:40;;;;;;;5.25;3.90;;;;;;;31.31;30.78;94424.13;4170863;28;20051;-69
2022/08/06 10:13:50;;;;;;;7.32;3.80;;;;;;;31.33;30.83;94421.94;4174347;28;20400;-68
2022/08/06 10:15:58;;;;;;;5.82;3.67;;;;;;;31.40;30.82;94421.53;4173515;28;20049;-69